Ottawa Gatineau Airport
CYND : now visible

Airfield :











YOU CAN JOIN US ON...

 
LOGIN :

Register | Disclaimer

   EN    FR    IT 

 









Legend :    VFR   Marginal VFR   IFR   Intensive IFR   Very Intensive IFR
Visi :
Ceiling :
>= 8 km
>= 3000ft
5 to 8 km
1000 to 3000 ft
1500m to 5 km
500 to 1000 ft
800 to 1500m
200 to 500 ft
< 800m
< 200 ft
Symbols :   Thunderstorms  Fog  Heavy snow  Heavy precipitations  Wind > 20 kt






- Airport Elevation : 211 ft
- IATA code : YND


CYND - Ottawa Gatineau

CURRENT METAR :
  • 291900Z VRB02KT 15SM FEW031 SCT220 07/00 A2995 RMK SC2CI1 SLP147

EXPIRED METARs :
  • 291800Z 28002KT 15SM BKN030 05/M00 A2997 RMK SC5 SLP152
  • 291700Z 23004KT 210V280 15SM BKN032 04/M00 A2998 RMK SC7 SLP154

TAF TAF CYND
Valid from the 29 at 18:00 until the 30 at 02:00 UTC


291739Z 2918/3002 23005KT P6SM SCT030
TEMPO 2918/2923 BKN030
FM292300 08005KT P6SM BKN030
TEMPO 2923/3002 BKN020 RMK NXT FCST BY 300000Z
CZUL FIR / North America



MET'MAP, your aeronautical weather chart ! - Copyright ORBIFLY December 2007 - Disclaimer

ORBIFLY MET'MAP TEAM :

Programming & Development : Alexandra Zaïnal
Concept & original design : Baudouin d'Aumeries
Assistance for programming : Marc-Olivier Méhu
Technical & hardware support : Manuel Goepfert

Contact : metmap@orbifly.com




SOURCES & CREDITS :

   NOAA       Earth
Advisory